Map

Track Data

SID SEASON NUMBER BASIN SUBBASIN NAME ISO_TIME NATURE LAT LON WMO_WIND WMO_PRES WMO_AGENCY TRACK_TYPE DIST2LAND LANDFALL IFLAG USA_AGENCY USA_ATCF_ID USA_LAT USA_LON USA_RECORD USA_STATUS USA_WIND USA_PRES USA_SSHS USA_R34_NE USA_R34_SE USA_R34_SW USA_R34_NW USA_R50_NE USA_R50_SE USA_R50_SW USA_R50_NW USA_R64_NE USA_R64_SE USA_R64_SW USA_R64_NW USA_POCI USA_ROCI USA_RMW USA_EYE TOKYO_LAT TOKYO_LON TOKYO_GRADE TOKYO_WIND TOKYO_PRES TOKYO_R50_DIR TOKYO_R50_LONG TOKYO_R50_SHORT TOKYO_R30_DIR TOKYO_R30_LONG TOKYO_R30_SHORT TOKYO_LAND CMA_LAT CMA_LON CMA_CAT CMA_WIND CMA_PRES HKO_LAT HKO_LON HKO_CAT HKO_WIND HKO_PRES NEWDELHI_LAT NEWDELHI_LON NEWDELHI_GRADE NEWDELHI_WIND NEWDELHI_PRES NEWDELHI_CI NEWDELHI_DP NEWDELHI_POCI REUNION_LAT REUNION_LON REUNION_TYPE REUNION_WIND REUNION_PRES REUNION_TNUM REUNION_CI REUNION_RMW REUNION_R34_NE REUNION_R34_SE REUNION_R34_SW REUNION_R34_NW REUNION_R50_NE REUNION_R50_SE REUNION_R50_SW REUNION_R50_NW REUNION_R64_NE REUNION_R64_SE REUNION_R64_SW REUNION_R64_NW BOM_LAT BOM_LON BOM_TYPE BOM_WIND BOM_PRES BOM_TNUM BOM_CI BOM_RMW BOM_R34_NE BOM_R34_SE BOM_R34_SW BOM_R34_NW BOM_R50_NE BOM_R50_SE BOM_R50_SW BOM_R50_NW BOM_R64_NE BOM_R64_SE BOM_R64_SW BOM_R64_NW BOM_ROCI BOM_POCI BOM_EYE BOM_POS_METHOD BOM_PRES_METHOD NADI_LAT NADI_LON NADI_CAT NADI_WIND NADI_PRES WELLINGTON_LAT WELLINGTON_LON WELLINGTON_WIND WELLINGTON_PRES DS824_LAT DS824_LON DS824_STAGE DS824_WIND DS824_PRES TD9636_LAT TD9636_LON TD9636_STAGE TD9636_WIND TD9636_PRES TD9635_LAT TD9635_LON TD9635_WIND TD9635_PRES TD9635_ROCI NEUMANN_LAT NEUMANN_LON NEUMANN_CLASS NEUMANN_WIND NEUMANN_PRES MLC_LAT MLC_LON MLC_CLASS MLC_WIND MLC_PRES USA_GUST BOM_GUST BOM_GUST_PER REUNION_GUST REUNION_GUST_PER USA_SEAHGT USA_SEARAD_NE USA_SEARAD_SE USA_SEARAD_SW USA_SEARAD_NW STORM_SPEED STORM_DIR
1968018S12132 1968 6 SI WA NOT_NAMED 1968-01-17 22:00:00 NR -11.9000 132.100 spur-merge 44 44 __________O___ -1 -11.9000 132.100 1 3 261
1968018S12132 1968 6 SI WA NOT_NAMED 1968-01-18 00:00:00 TS -11.9167 131.988 spur-merge 44 33 O________OP___ jtwc_sh SH151968 -11.9000 132.000 -1 -11.9000 132.000 TC -11.9334 131.976 1 4 258
1968018S12132 1968 6 SI WA NOT_NAMED 1968-01-18 03:00:00 TS -11.9658 131.791 spur-merge 33 33 P________PP___ SH151968 -11.9525 131.790 -1 -11.9525 131.790 TC -11.9835 131.792 1 4 255
1968018S12132 1968 6 SI WA NOT_NAMED 1968-01-18 06:00:00 TS -12.0134 131.606 spur-merge 33 10 O________OP___ jtwc_sh SH151968 -12.0000 131.600 -1 -12.0000 131.600 TC -12.0335 131.616 1 4 255
1968018S12132 1968 6 SI WA NOT_NAMED 1968-01-18 09:00:00 TS -12.0561 131.446 spur-merge 10 10 P________PP___ SH151968 -12.0425 131.442 -1 -12.0425 131.442 TC -12.0834 131.452 1 3 254
1968018S12132 1968 6 SI WA NOT_NAMED 1968-01-18 10:00:00 TS -12.0725 131.396 spur-merge 10 0 P________PO___ SH151968 -12.0587 131.395 -1 -12.0587 131.395 TC -12.1000 131.400 1 3 249
1968018S12132 1968 6 SI WA NOT_NAMED 1968-01-18 12:00:00 TS -12.1112 131.301 spur-merge 0 0 O________OP___ jtwc_sh SH151968 -12.1000 131.300 -1 -12.1000 131.300 TC -12.1337 131.302 1 3 243
1968018S12132 1968 6 SI WA NOT_NAMED 1968-01-18 15:00:00 TS -12.1918 131.154 spur-merge 0 0 P________PP___ SH151968 -12.1925 131.150 -1 -12.1925 131.150 TC -12.1904 131.162 1 3 239
1968018S12132 1968 6 SI WA NOT_NAMED 1968-01-18 18:00:00 TS -12.2876 131.006 spur-merge 0 0 O________OP___ jtwc_sh SH151968 -12.3000 131.000 -1 -12.3000 131.000 TC -12.2628 131.018 1 3 236
1968018S12132 1968 6 SI WA NOT_NAMED 1968-01-18 21:00:00 TS -12.3817 130.863 spur-merge 0 0 P________PP___ SH151968 -12.3925 130.865 -1 -12.3925 130.865 TC -12.3603 130.859 1 3 236
1968018S12132 1968 6 SI WA NOT_NAMED 1968-01-18 22:00:00 TS -12.4169 130.811 spur-merge 0 0 P________PO___ SH151968 -12.4254 130.816 -1 -12.4254 130.816 TC -12.4000 130.800 1 4 235
1968018S12132 1968 6 SI WA NOT_NAMED 1968-01-19 00:00:00 TS -12.4971 130.691 spur-merge 0 0 O________OP___ jtwc_sh SH151968 -12.5000 130.700 -1 -12.5000 130.700 TC -12.4912 130.672 1 5 236
1968018S12132 1968 6 SI WA NOT_NAMED 1968-01-19 03:00:00 TS -12.6411 130.464 spur-merge 10 0 P________PP___ SH151968 -12.6350 130.465 -1 -12.6350 130.465 TC -12.6531 130.462 1 6 236
1968018S12132 1968 6 SI WA NOT_NAMED 1968-01-19 06:00:00 TS -12.8123 130.211 spur-merge 15 10 O________OP___ jtwc_sh SH151968 -12.8000 130.200 -1 -12.8000 130.200 TC -12.8370 130.232 1 6 233
1968018S12132 1968 6 SI WA NOT_NAMED 1968-01-19 09:00:00 TS -13.0061 129.962 spur-merge 10 21 P________PP___ SH151968 -12.9925 129.950 -1 -12.9925 129.950 TC -13.0334 129.985 1 6 231
1968018S12132 1968 6 SI WA NOT_NAMED 1968-01-19 10:00:00 TS -13.0741 129.878 spur-merge 21 21 P________PO___ SH151968 -13.0612 129.867 -1 -13.0612 129.867 TC -13.1000 129.900 1 6 229
1968018S12132 1968 6 SI WA NOT_NAMED 1968-01-19 12:00:00 TS -13.2134 129.710 spur-merge 35 24 O________OP___ jtwc_sh SH151968 -13.2000 129.700 -1 -13.2000 129.700 TC -13.2334 129.725 1 6 230
1968018S12132 1968 6 SI WA NOT_NAMED 1968-01-19 15:00:00 TS -13.4181 129.452 spur-merge 34 43 P________PP___ SH151968 -13.4025 129.450 -1 -13.4025 129.450 TC -13.4336 129.455 1 7 231
1968018S12132 1968 6 SI WA NOT_NAMED 1968-01-19 18:00:00 TS -13.6202 129.186 spur-merge 63 63 O________OP___ jtwc_sh SH151968 -13.6000 129.200 -1 -13.6000 129.200 TC -13.6336 129.177 1 7 233
1968018S12132 1968 6 SI WA NOT_NAMED 1968-01-19 21:00:00 NR -13.8334 128.895 spur-merge 77 70 __________P___ SH151968 -1 TC -13.8334 128.895 1 7 233
1968018S12132 1968 6 SI WA NOT_NAMED 1968-01-19 22:00:00 NR -13.9000 128.800 spur-merge 78 __________O___ SH151968 -1 TC -13.9000 128.800 1 7 234

About IBTrACS Database

This database is a web-friendly format of International Best Track Archive for Climate Stewardship (IBTrACS), a global best track data archive curated by NOAA dating back to 1842.

Updated: 2021-12-03